sensor_id;sensor_type;location;lat;lon;timestamp;P1;durP1;ratioP1;P2;durP2;ratioP2
8532;SDS011;4304;53.876;10.662;2022-08-26T00:02:03;6.63;;;3.90;;
8532;SDS011;4304;53.876;10.662;2022-08-26T00:04:28;7.20;;;4.03;;
8532;SDS011;4304;53.876;10.662;2022-08-26T00:06:54;9.23;;;4.45;;
8532;SDS011;4304;53.876;10.662;2022-08-26T00:09:20;7.13;;;4.20;;
8532;SDS011;4304;53.876;10.662;2022-08-26T00:11:46;5.70;;;3.63;;
8532;SDS011;4304;53.876;10.662;2022-08-26T00:14:12;5.65;;;3.83;;
8532;SDS011;4304;53.876;10.662;2022-08-26T00:16:38;12.60;;;4.20;;
8532;SDS011;4304;53.876;10.662;2022-08-26T00:19:03;8.95;;;4.38;;
8532;SDS011;4304;53.876;10.662;2022-08-26T00:21:28;10.90;;;3.90;;
8532;SDS011;4304;53.876;10.662;2022-08-26T00:23:54;6.32;;;4.07;;
8532;SDS011;4304;53.876;10.662;2022-08-26T00:26:19;6.72;;;4.03;;
8532;SDS011;4304;53.876;10.662;2022-08-26T00:28:44;11.65;;;4.13;;
8532;SDS011;4304;53.876;10.662;2022-08-26T00:31:09;10.38;;;3.95;;
8532;SDS011;4304;53.876;10.662;2022-08-26T00:33:35;6.82;;;3.70;;
8532;SDS011;4304;53.876;10.662;2022-08-26T00:36:00;9.25;;;4.05;;
8532;SDS011;4304;53.876;10.662;2022-08-26T00:38:25;9.50;;;4.05;;
8532;SDS011;4304;53.876;10.662;2022-08-26T00:40:51;7.63;;;4.13;;
8532;SDS011;4304;53.876;10.662;2022-08-26T00:43:18;9.25;;;4.57;;
8532;SDS011;4304;53.876;10.662;2022-08-26T00:45:46;12.38;;;4.68;;
8532;SDS011;4304;53.876;10.662;2022-08-26T00:48:17;10.52;;;4.20;;
8532;SDS011;4304;53.876;10.662;2022-08-26T00:51:19;12.05;;;4.50;;
8532;SDS011;4304;53.876;10.662;2022-08-26T00:53:47;8.75;;;3.97;;
8532;SDS011;4304;53.876;10.662;2022-08-26T00:56:28;7.97;;;4.70;;
8532;SDS011;4304;53.876;10.662;2022-08-26T00:59:00;7.95;;;3.95;;
8532;SDS011;4304;53.876;10.662;2022-08-26T01:01:28;10.13;;;4.30;;
8532;SDS011;4304;53.876;10.662;2022-08-26T01:03:54;9.18;;;4.07;;
8532;SDS011;4304;53.876;10.662;2022-08-26T01:06:20;6.57;;;4.88;;
8532;SDS011;4304;53.876;10.662;2022-08-26T01:08:46;9.32;;;4.30;;
8532;SDS011;4304;53.876;10.662;2022-08-26T01:11:11;7.28;;;4.80;;
8532;SDS011;4304;53.876;10.662;2022-08-26T01:13:37;8.82;;;4.40;;
8532;SDS011;4304;53.876;10.662;2022-08-26T01:16:03;10.65;;;4.78;;
8532;SDS011;4304;53.876;10.662;2022-08-26T01:18:31;9.40;;;4.82;;
8532;SDS011;4304;53.876;10.662;2022-08-26T01:21:11;8.93;;;4.65;;
8532;SDS011;4304;53.876;10.662;2022-08-26T01:23:46;11.30;;;4.90;;
8532;SDS011;4304;53.876;10.662;2022-08-26T01:26:18;8.88;;;4.55;;
8532;SDS011;4304;53.876;10.662;2022-08-26T01:28:47;10.10;;;5.25;;
8532;SDS011;4304;53.876;10.662;2022-08-26T01:31:16;12.55;;;5.00;;
8532;SDS011;4304;53.876;10.662;2022-08-26T01:33:50;12.43;;;5.45;;
8532;SDS011;4304;53.876;10.662;2022-08-26T01:36:22;12.07;;;5.20;;
8532;SDS011;4304;53.876;10.662;2022-08-26T01:38:47;10.45;;;4.85;;
8532;SDS011;4304;53.876;10.662;2022-08-26T01:41:13;12.20;;;5.00;;
8532;SDS011;4304;53.876;10.662;2022-08-26T01:43:39;10.32;;;5.13;;
8532;SDS011;4304;53.876;10.662;2022-08-26T01:46:07;11.77;;;5.82;;
8532;SDS011;4304;53.876;10.662;2022-08-26T01:48:33;6.30;;;4.80;;
8532;SDS011;4304;53.876;10.662;2022-08-26T01:51:01;9.90;;;5.43;;
8532;SDS011;4304;53.876;10.662;2022-08-26T01:53:28;9.38;;;5.18;;
8532;SDS011;4304;53.876;10.662;2022-08-26T01:55:55;11.77;;;5.13;;
8532;SDS011;4304;53.876;10.662;2022-08-26T01:58:30;8.23;;;5.25;;
8532;SDS011;4304;53.876;10.662;2022-08-26T02:00:59;10.43;;;5.20;;
8532;SDS011;4304;53.876;10.662;2022-08-26T02:03:25;7.78;;;5.03;;
8532;SDS011;4304;53.876;10.662;2022-08-26T02:06:00;11.38;;;5.13;;
8532;SDS011;4304;53.876;10.662;2022-08-26T02:08:34;9.70;;;5.35;;
8532;SDS011;4304;53.876;10.662;2022-08-26T02:11:12;8.65;;;5.13;;
8532;SDS011;4304;53.876;10.662;2022-08-26T02:13:46;7.25;;;4.78;;
8532;SDS011;4304;53.876;10.662;2022-08-26T02:16:16;10.70;;;6.15;;
8532;SDS011;4304;53.876;10.662;2022-08-26T02:18:45;11.27;;;5.93;;
8532;SDS011;4304;53.876;10.662;2022-08-26T02:21:13;12.43;;;5.40;;
8532;SDS011;4304;53.876;10.662;2022-08-26T02:23:41;11.20;;;5.68;;
8532;SDS011;4304;53.876;10.662;2022-08-26T02:26:09;8.35;;;5.80;;
8532;SDS011;4304;53.876;10.662;2022-08-26T02:28:49;12.93;;;5.78;;
8532;SDS011;4304;53.876;10.662;2022-08-26T02:31:15;8.82;;;5.32;;
8532;SDS011;4304;53.876;10.662;2022-08-26T02:33:41;11.85;;;5.28;;
8532;SDS011;4304;53.876;10.662;2022-08-26T02:36:08;9.65;;;5.43;;
8532;SDS011;4304;53.876;10.662;2022-08-26T02:38:34;8.68;;;5.53;;
8532;SDS011;4304;53.876;10.662;2022-08-26T02:41:00;8.70;;;5.55;;
8532;SDS011;4304;53.876;10.662;2022-08-26T02:43:29;10.35;;;5.82;;
8532;SDS011;4304;53.876;10.662;2022-08-26T02:45:57;9.93;;;5.80;;
8532;SDS011;4304;53.876;10.662;2022-08-26T02:48:23;9.65;;;5.60;;
8532;SDS011;4304;53.876;10.662;2022-08-26T02:50:49;18.40;;;6.00;;
8532;SDS011;4304;53.876;10.662;2022-08-26T02:53:15;13.65;;;6.10;;
8532;SDS011;4304;53.876;10.662;2022-08-26T02:55:41;13.80;;;6.25;;
8532;SDS011;4304;53.876;10.662;2022-08-26T02:58:07;18.08;;;6.28;;
8532;SDS011;4304;53.876;10.662;2022-08-26T03:00:37;12.90;;;5.82;;
8532;SDS011;4304;53.876;10.662;2022-08-26T03:03:03;11.40;;;5.43;;
8532;SDS011;4304;53.876;10.662;2022-08-26T03:05:28;11.90;;;6.40;;
8532;SDS011;4304;53.876;10.662;2022-08-26T03:07:54;16.52;;;6.55;;
8532;SDS011;4304;53.876;10.662;2022-08-26T03:10:22;8.38;;;6.07;;
8532;SDS011;4304;53.876;10.662;2022-08-26T03:12:48;9.85;;;6.25;;
8532;SDS011;4304;53.876;10.662;2022-08-26T03:15:15;14.43;;;5.97;;
8532;SDS011;4304;53.876;10.662;2022-08-26T03:17:42;10.43;;;5.82;;
8532;SDS011;4304;53.876;10.662;2022-08-26T03:20:08;12.05;;;5.82;;
8532;SDS011;4304;53.876;10.662;2022-08-26T03:22:37;10.23;;;5.88;;
8532;SDS011;4304;53.876;10.662;2022-08-26T03:25:04;17.33;;;6.25;;
8532;SDS011;4304;53.876;10.662;2022-08-26T03:27:31;14.18;;;6.90;;
8532;SDS011;4304;53.876;10.662;2022-08-26T03:29:58;13.95;;;6.75;;
8532;SDS011;4304;53.876;10.662;2022-08-26T03:32:23;10.27;;;6.20;;
8532;SDS011;4304;53.876;10.662;2022-08-26T03:34:48;15.15;;;6.63;;
8532;SDS011;4304;53.876;10.662;2022-08-26T03:37:14;12.55;;;6.55;;
8532;SDS011;4304;53.876;10.662;2022-08-26T03:39:39;10.73;;;6.70;;
8532;SDS011;4304;53.876;10.662;2022-08-26T03:42:04;11.45;;;7.15;;
8532;SDS011;4304;53.876;10.662;2022-08-26T03:44:29;11.32;;;6.88;;
8532;SDS011;4304;53.876;10.662;2022-08-26T03:46:55;13.18;;;7.85;;
8532;SDS011;4304;53.876;10.662;2022-08-26T03:49:20;17.67;;;9.13;;
8532;SDS011;4304;53.876;10.662;2022-08-26T03:51:46;16.15;;;7.57;;
8532;SDS011;4304;53.876;10.662;2022-08-26T03:54:11;23.95;;;8.68;;
8532;SDS011;4304;53.876;10.662;2022-08-26T03:56:36;14.98;;;7.05;;
8532;SDS011;4304;53.876;10.662;2022-08-26T03:59:02;15.82;;;8.88;;
8532;SDS011;4304;53.876;10.662;2022-08-26T04:01:28;17.45;;;9.05;;
8532;SDS011;4304;53.876;10.662;2022-08-26T04:03:54;11.35;;;7.55;;
8532;SDS011;4304;53.876;10.662;2022-08-26T04:06:19;18.48;;;10.00;;
8532;SDS011;4304;53.876;10.662;2022-08-26T04:08:44;16.08;;;9.00;;
8532;SDS011;4304;53.876;10.662;2022-08-26T04:11:14;19.13;;;9.07;;
8532;SDS011;4304;53.876;10.662;2022-08-26T04:13:44;17.40;;;9.48;;
8532;SDS011;4304;53.876;10.662;2022-08-26T04:16:09;23.75;;;9.75;;
8532;SDS011;4304;53.876;10.662;2022-08-26T04:18:35;20.25;;;10.43;;
8532;SDS011;4304;53.876;10.662;2022-08-26T04:21:00;19.38;;;9.52;;
8532;SDS011;4304;53.876;10.662;2022-08-26T04:23:25;14.90;;;8.95;;
8532;SDS011;4304;53.876;10.662;2022-08-26T04:25:50;27.02;;;11.25;;
8532;SDS011;4304;53.876;10.662;2022-08-26T04:28:15;20.25;;;11.05;;
8532;SDS011;4304;53.876;10.662;2022-08-26T04:30:41;19.05;;;10.40;;
8532;SDS011;4304;53.876;10.662;2022-08-26T04:33:06;20.08;;;11.10;;
8532;SDS011;4304;53.876;10.662;2022-08-26T04:35:31;19.35;;;11.30;;
8532;SDS011;4304;53.876;10.662;2022-08-26T04:37:56;21.83;;;11.05;;
8532;SDS011;4304;53.876;10.662;2022-08-26T04:40:22;31.73;;;11.93;;
8532;SDS011;4304;53.876;10.662;2022-08-26T04:42:47;20.55;;;11.95;;
8532;SDS011;4304;53.876;10.662;2022-08-26T04:45:13;19.40;;;10.85;;
8532;SDS011;4304;53.876;10.662;2022-08-26T04:47:38;21.85;;;10.60;;
8532;SDS011;4304;53.876;10.662;2022-08-26T04:50:04;17.65;;;10.52;;
8532;SDS011;4304;53.876;10.662;2022-08-26T04:52:30;17.27;;;10.77;;
8532;SDS011;4304;53.876;10.662;2022-08-26T04:54:55;13.98;;;10.48;;
8532;SDS011;4304;53.876;10.662;2022-08-26T04:57:21;17.67;;;10.93;;
8532;SDS011;4304;53.876;10.662;2022-08-26T04:59:46;19.50;;;10.70;;
8532;SDS011;4304;53.876;10.662;2022-08-26T05:02:11;24.85;;;11.50;;
8532;SDS011;4304;53.876;10.662;2022-08-26T05:04:39;26.40;;;11.80;;
8532;SDS011;4304;53.876;10.662;2022-08-26T05:07:05;17.02;;;11.48;;
8532;SDS011;4304;53.876;10.662;2022-08-26T05:09:30;20.67;;;10.88;;
8532;SDS011;4304;53.876;10.662;2022-08-26T05:11:55;21.00;;;11.93;;
8532;SDS011;4304;53.876;10.662;2022-08-26T05:14:20;21.65;;;11.65;;
8532;SDS011;4304;53.876;10.662;2022-08-26T05:16:45;23.30;;;11.98;;
8532;SDS011;4304;53.876;10.662;2022-08-26T05:19:11;20.77;;;12.05;;
8532;SDS011;4304;53.876;10.662;2022-08-26T05:21:36;21.98;;;12.75;;
8532;SDS011;4304;53.876;10.662;2022-08-26T05:24:01;32.15;;;12.93;;
8532;SDS011;4304;53.876;10.662;2022-08-26T05:26:27;29.15;;;11.27;;
8532;SDS011;4304;53.876;10.662;2022-08-26T05:28:54;22.63;;;12.85;;
8532;SDS011;4304;53.876;10.662;2022-08-26T05:31:25;19.63;;;12.25;;
8532;SDS011;4304;53.876;10.662;2022-08-26T05:33:53;20.98;;;12.20;;
8532;SDS011;4304;53.876;10.662;2022-08-26T05:36:20;20.45;;;12.25;;
8532;SDS011;4304;53.876;10.662;2022-08-26T05:38:46;17.85;;;11.63;;
8532;SDS011;4304;53.876;10.662;2022-08-26T05:41:19;23.23;;;13.30;;
8532;SDS011;4304;53.876;10.662;2022-08-26T05:43:51;22.52;;;12.27;;
8532;SDS011;4304;53.876;10.662;2022-08-26T05:46:16;21.95;;;13.25;;
8532;SDS011;4304;53.876;10.662;2022-08-26T05:48:41;23.42;;;13.25;;
8532;SDS011;4304;53.876;10.662;2022-08-26T05:51:07;24.00;;;13.38;;
8532;SDS011;4304;53.876;10.662;2022-08-26T05:53:34;25.75;;;13.73;;
8532;SDS011;4304;53.876;10.662;2022-08-26T05:56:01;29.27;;;13.43;;
8532;SDS011;4304;53.876;10.662;2022-08-26T05:58:27;27.60;;;14.60;;
8532;SDS011;4304;53.876;10.662;2022-08-26T06:00:59;31.25;;;14.68;;
8532;SDS011;4304;53.876;10.662;2022-08-26T06:03:33;30.38;;;16.45;;
8532;SDS011;4304;53.876;10.662;2022-08-26T06:06:10;33.75;;;15.82;;
8532;SDS011;4304;53.876;10.662;2022-08-26T06:08:40;29.75;;;16.00;;
8532;SDS011;4304;53.876;10.662;2022-08-26T06:11:07;29.20;;;15.88;;
8532;SDS011;4304;53.876;10.662;2022-08-26T06:13:34;27.25;;;15.18;;
8532;SDS011;4304;53.876;10.662;2022-08-26T06:16:04;24.73;;;15.18;;
8532;SDS011;4304;53.876;10.662;2022-08-26T06:18:32;26.40;;;14.25;;
8532;SDS011;4304;53.876;10.662;2022-08-26T06:21:00;26.60;;;15.20;;
8532;SDS011;4304;53.876;10.662;2022-08-26T06:23:35;24.10;;;14.23;;
8532;SDS011;4304;53.876;10.662;2022-08-26T06:26:00;30.88;;;14.93;;
8532;SDS011;4304;53.876;10.662;2022-08-26T06:28:27;23.98;;;14.30;;
8532;SDS011;4304;53.876;10.662;2022-08-26T06:30:53;27.83;;;15.23;;
8532;SDS011;4304;53.876;10.662;2022-08-26T06:33:19;23.00;;;14.23;;
8532;SDS011;4304;53.876;10.662;2022-08-26T06:35:44;20.70;;;14.07;;
8532;SDS011;4304;53.876;10.662;2022-08-26T06:38:09;28.13;;;15.13;;
8532;SDS011;4304;53.876;10.662;2022-08-26T06:40:45;23.92;;;14.05;;
8532;SDS011;4304;53.876;10.662;2022-08-26T06:43:13;21.55;;;13.95;;
8532;SDS011;4304;53.876;10.662;2022-08-26T06:45:40;23.10;;;12.88;;
8532;SDS011;4304;53.876;10.662;2022-08-26T06:48:06;20.58;;;13.75;;
8532;SDS011;4304;53.876;10.662;2022-08-26T06:50:32;23.83;;;14.20;;
8532;SDS011;4304;53.876;10.662;2022-08-26T06:52:58;20.25;;;13.95;;
8532;SDS011;4304;53.876;10.662;2022-08-26T06:55:23;22.30;;;14.52;;
8532;SDS011;4304;53.876;10.662;2022-08-26T06:57:49;26.98;;;14.93;;
8532;SDS011;4304;53.876;10.662;2022-08-26T07:00:14;23.75;;;14.52;;
8532;SDS011;4304;53.876;10.662;2022-08-26T07:02:40;22.63;;;13.73;;
8532;SDS011;4304;53.876;10.662;2022-08-26T07:05:05;23.15;;;13.77;;
8532;SDS011;4304;53.876;10.662;2022-08-26T07:07:31;21.10;;;14.13;;
8532;SDS011;4304;53.876;10.662;2022-08-26T07:09:57;20.35;;;13.73;;
8532;SDS011;4304;53.876;10.662;2022-08-26T07:12:22;26.10;;;14.02;;
8532;SDS011;4304;53.876;10.662;2022-08-26T07:14:48;19.55;;;12.93;;
8532;SDS011;4304;53.876;10.662;2022-08-26T07:17:13;22.60;;;14.27;;
8532;SDS011;4304;53.876;10.662;2022-08-26T07:19:39;23.45;;;13.75;;
8532;SDS011;4304;53.876;10.662;2022-08-26T07:22:05;22.83;;;13.43;;
8532;SDS011;4304;53.876;10.662;2022-08-26T07:24:32;19.15;;;12.88;;
8532;SDS011;4304;53.876;10.662;2022-08-26T07:27:03;18.05;;;12.27;;
8532;SDS011;4304;53.876;10.662;2022-08-26T07:29:32;20.15;;;11.57;;
8532;SDS011;4304;53.876;10.662;2022-08-26T07:31:58;17.60;;;11.55;;
8532;SDS011;4304;53.876;10.662;2022-08-26T07:34:24;19.88;;;11.82;;
8532;SDS011;4304;53.876;10.662;2022-08-26T07:36:50;19.48;;;12.82;;
8532;SDS011;4304;53.876;10.662;2022-08-26T07:39:15;20.10;;;13.40;;
8532;SDS011;4304;53.876;10.662;2022-08-26T07:41:41;19.80;;;12.55;;
8532;SDS011;4304;53.876;10.662;2022-08-26T07:44:07;17.20;;;12.52;;
8532;SDS011;4304;53.876;10.662;2022-08-26T07:46:32;18.23;;;12.38;;
8532;SDS011;4304;53.876;10.662;2022-08-26T07:48:57;16.92;;;11.63;;
8532;SDS011;4304;53.876;10.662;2022-08-26T07:51:23;20.73;;;13.20;;
8532;SDS011;4304;53.876;10.662;2022-08-26T07:53:48;19.63;;;12.73;;
8532;SDS011;4304;53.876;10.662;2022-08-26T07:56:14;20.45;;;12.55;;
8532;SDS011;4304;53.876;10.662;2022-08-26T07:58:40;19.98;;;12.80;;
8532;SDS011;4304;53.876;10.662;2022-08-26T08:01:06;18.33;;;12.55;;
8532;SDS011;4304;53.876;10.662;2022-08-26T08:03:32;17.55;;;12.27;;
8532;SDS011;4304;53.876;10.662;2022-08-26T08:05:57;19.35;;;12.60;;
8532;SDS011;4304;53.876;10.662;2022-08-26T08:08:22;23.38;;;13.40;;
8532;SDS011;4304;53.876;10.662;2022-08-26T08:10:48;17.30;;;13.07;;
8532;SDS011;4304;53.876;10.662;2022-08-26T08:13:13;16.08;;;10.98;;
8532;SDS011;4304;53.876;10.662;2022-08-26T08:15:39;20.15;;;12.15;;
8532;SDS011;4304;53.876;10.662;2022-08-26T08:18:04;20.23;;;12.60;;
8532;SDS011;4304;53.876;10.662;2022-08-26T08:20:30;17.20;;;11.70;;
8532;SDS011;4304;53.876;10.662;2022-08-26T08:22:56;19.50;;;12.68;;
8532;SDS011;4304;53.876;10.662;2022-08-26T08:25:21;14.60;;;10.73;;
8532;SDS011;4304;53.876;10.662;2022-08-26T08:27:47;19.42;;;11.85;;
8532;SDS011;4304;53.876;10.662;2022-08-26T08:30:13;14.57;;;10.13;;
8532;SDS011;4304;53.876;10.662;2022-08-26T08:32:40;19.08;;;10.82;;
8532;SDS011;4304;53.876;10.662;2022-08-26T08:35:06;14.55;;;10.00;;
8532;SDS011;4304;53.876;10.662;2022-08-26T08:37:32;19.05;;;10.07;;
8532;SDS011;4304;53.876;10.662;2022-08-26T08:39:58;15.77;;;10.77;;
8532;SDS011;4304;53.876;10.662;2022-08-26T08:42:37;16.13;;;10.85;;
8532;SDS011;4304;53.876;10.662;2022-08-26T08:45:14;17.42;;;10.35;;
8532;SDS011;4304;53.876;10.662;2022-08-26T08:47:46;12.80;;;8.90;;
8532;SDS011;4304;53.876;10.662;2022-08-26T08:50:25;12.40;;;9.45;;
8532;SDS011;4304;53.876;10.662;2022-08-26T08:53:03;14.75;;;10.35;;
8532;SDS011;4304;53.876;10.662;2022-08-26T08:55:43;16.58;;;10.43;;
8532;SDS011;4304;53.876;10.662;2022-08-26T08:58:21;18.75;;;10.50;;
8532;SDS011;4304;53.876;10.662;2022-08-26T09:00:55;14.90;;;9.15;;
8532;SDS011;4304;53.876;10.662;2022-08-26T09:03:31;13.88;;;8.80;;
8532;SDS011;4304;53.876;10.662;2022-08-26T09:05:59;12.30;;;8.77;;
8532;SDS011;4304;53.876;10.662;2022-08-26T09:08:31;11.82;;;8.70;;
8532;SDS011;4304;53.876;10.662;2022-08-26T09:10:58;12.70;;;8.10;;
8532;SDS011;4304;53.876;10.662;2022-08-26T09:13:26;16.67;;;8.43;;
8532;SDS011;4304;53.876;10.662;2022-08-26T09:21:23;14.30;;;7.32;;
8532;SDS011;4304;53.876;10.662;2022-08-26T09:23:50;13.98;;;8.40;;
8532;SDS011;4304;53.876;10.662;2022-08-26T09:26:19;13.05;;;7.95;;
8532;SDS011;4304;53.876;10.662;2022-08-26T09:29:21;11.55;;;7.78;;
8532;SDS011;4304;53.876;10.662;2022-08-26T09:31:44;12.23;;;7.38;;
8532;SDS011;4304;53.876;10.662;2022-08-26T09:34:15;10.90;;;7.95;;
8532;SDS011;4304;53.876;10.662;2022-08-26T09:39:26;12.13;;;7.75;;
8532;SDS011;4304;53.876;10.662;2022-08-26T09:44:56;12.27;;;7.43;;
8532;SDS011;4304;53.876;10.662;2022-08-26T09:47:28;13.07;;;7.53;;
8532;SDS011;4304;53.876;10.662;2022-08-26T09:50:55;14.60;;;8.07;;
8532;SDS011;4304;53.876;10.662;2022-08-26T09:55:37;10.18;;;6.75;;
8532;SDS011;4304;53.876;10.662;2022-08-26T09:58:04;8.68;;;6.00;;
8532;SDS011;4304;53.876;10.662;2022-08-26T10:00:34;9.05;;;6.22;;
8532;SDS011;4304;53.876;10.662;2022-08-26T10:03:03;17.33;;;6.10;;
8532;SDS011;4304;53.876;10.662;2022-08-26T10:05:33;8.38;;;6.22;;
8532;SDS011;4304;53.876;10.662;2022-08-26T10:08:21;11.02;;;5.97;;
8532;SDS011;4304;53.876;10.662;2022-08-26T10:10:57;8.00;;;6.07;;
8532;SDS011;4304;53.876;10.662;2022-08-26T10:15:59;8.88;;;5.93;;
8532;SDS011;4304;53.876;10.662;2022-08-26T10:18:45;12.05;;;6.07;;
8532;SDS011;4304;53.876;10.662;2022-08-26T10:21:29;10.60;;;6.00;;
8532;SDS011;4304;53.876;10.662;2022-08-26T10:23:59;10.63;;;6.32;;
8532;SDS011;4304;53.876;10.662;2022-08-26T10:29:15;13.70;;;6.35;;
8532;SDS011;4304;53.876;10.662;2022-08-26T10:34:15;9.48;;;6.30;;
8532;SDS011;4304;53.876;10.662;2022-08-26T10:36:44;11.07;;;6.28;;
8532;SDS011;4304;53.876;10.662;2022-08-26T10:39:19;10.95;;;7.25;;
8532;SDS011;4304;53.876;10.662;2022-08-26T10:41:45;13.35;;;6.82;;
8532;SDS011;4304;53.876;10.662;2022-08-26T10:44:13;15.20;;;7.97;;
8532;SDS011;4304;53.876;10.662;2022-08-26T10:46:45;14.93;;;7.70;;
8532;SDS011;4304;53.876;10.662;2022-08-26T10:49:15;14.25;;;8.25;;
8532;SDS011;4304;53.876;10.662;2022-08-26T10:51:46;13.13;;;7.63;;
8532;SDS011;4304;53.876;10.662;2022-08-26T11:02:37;13.20;;;8.40;;
8532;SDS011;4304;53.876;10.662;2022-08-26T11:05:17;12.75;;;7.97;;
8532;SDS011;4304;53.876;10.662;2022-08-26T11:07:46;14.20;;;8.80;;
8532;SDS011;4304;53.876;10.662;2022-08-26T11:28:32;9.65;;;6.88;;
8532;SDS011;4304;53.876;10.662;2022-08-26T11:31:00;10.38;;;7.40;;
8532;SDS011;4304;53.876;10.662;2022-08-26T11:33:43;9.23;;;7.20;;
8532;SDS011;4304;53.876;10.662;2022-08-26T11:38:57;10.85;;;7.28;;
8532;SDS011;4304;53.876;10.662;2022-08-26T11:41:23;7.75;;;6.68;;
8532;SDS011;4304;53.876;10.662;2022-08-26T11:43:49;15.45;;;7.57;;
8532;SDS011;4304;53.876;10.662;2022-08-26T11:46:14;14.88;;;7.20;;
8532;SDS011;4304;53.876;10.662;2022-08-26T11:48:48;10.70;;;7.47;;
8532;SDS011;4304;53.876;10.662;2022-08-26T11:51:21;12.00;;;7.05;;
8532;SDS011;4304;53.876;10.662;2022-08-26T11:53:48;10.27;;;7.03;;
8532;SDS011;4304;53.876;10.662;2022-08-26T11:56:20;9.52;;;6.72;;
8532;SDS011;4304;53.876;10.662;2022-08-26T11:58:54;10.13;;;6.85;;
8532;SDS011;4304;53.876;10.662;2022-08-26T12:01:28;10.43;;;6.57;;
8532;SDS011;4304;53.876;10.662;2022-08-26T12:03:58;13.30;;;7.82;;
8532;SDS011;4304;53.876;10.662;2022-08-26T12:06:25;9.25;;;6.97;;
8532;SDS011;4304;53.876;10.662;2022-08-26T12:08:54;8.48;;;6.53;;
8532;SDS011;4304;53.876;10.662;2022-08-26T12:11:24;8.48;;;6.50;;
8532;SDS011;4304;53.876;10.662;2022-08-26T12:16:31;10.45;;;6.20;;
8532;SDS011;4304;53.876;10.662;2022-08-26T12:19:21;8.38;;;6.10;;
8532;SDS011;4304;53.876;10.662;2022-08-26T12:21:47;7.55;;;5.63;;
8532;SDS011;4304;53.876;10.662;2022-08-26T12:24:16;10.75;;;6.18;;
8532;SDS011;4304;53.876;10.662;2022-08-26T12:26:42;7.63;;;5.97;;
8532;SDS011;4304;53.876;10.662;2022-08-26T12:29:10;10.52;;;5.82;;
8532;SDS011;4304;53.876;10.662;2022-08-26T12:31:47;9.95;;;5.88;;
8532;SDS011;4304;53.876;10.662;2022-08-26T12:34:14;12.73;;;6.18;;
8532;SDS011;4304;53.876;10.662;2022-08-26T12:36:51;12.13;;;6.40;;
8532;SDS011;4304;53.876;10.662;2022-08-26T12:41:56;13.82;;;6.40;;
8532;SDS011;4304;53.876;10.662;2022-08-26T12:49:39;13.75;;;7.95;;
8532;SDS011;4304;53.876;10.662;2022-08-26T12:52:07;19.58;;;7.57;;
8532;SDS011;4304;53.876;10.662;2022-08-26T12:54:50;13.65;;;6.90;;
8532;SDS011;4304;53.876;10.662;2022-08-26T12:57:16;14.45;;;8.05;;
8532;SDS011;4304;53.876;10.662;2022-08-26T12:59:49;15.20;;;8.40;;
8532;SDS011;4304;53.876;10.662;2022-08-26T13:02:33;20.63;;;9.15;;
8532;SDS011;4304;53.876;10.662;2022-08-26T13:04:59;15.40;;;8.80;;
8532;SDS011;4304;53.876;10.662;2022-08-26T13:07:24;16.73;;;9.20;;
8532;SDS011;4304;53.876;10.662;2022-08-26T13:09:52;19.00;;;8.85;;
8532;SDS011;4304;53.876;10.662;2022-08-26T13:12:22;16.38;;;8.73;;
8532;SDS011;4304;53.876;10.662;2022-08-26T13:14:51;19.20;;;9.40;;
8532;SDS011;4304;53.876;10.662;2022-08-26T13:17:16;14.68;;;8.60;;
8532;SDS011;4304;53.876;10.662;2022-08-26T13:19:41;17.58;;;8.27;;
8532;SDS011;4304;53.876;10.662;2022-08-26T13:22:07;15.77;;;7.10;;
8532;SDS011;4304;53.876;10.662;2022-08-26T13:24:37;17.77;;;7.53;;
8532;SDS011;4304;53.876;10.662;2022-08-26T13:27:05;15.30;;;7.13;;
8532;SDS011;4304;53.876;10.662;2022-08-26T13:29:31;15.00;;;6.35;;
8532;SDS011;4304;53.876;10.662;2022-08-26T13:31:57;14.52;;;6.32;;
8532;SDS011;4304;53.876;10.662;2022-08-26T13:34:23;13.45;;;6.22;;
8532;SDS011;4304;53.876;10.662;2022-08-26T13:36:49;13.93;;;6.05;;
8532;SDS011;4304;53.876;10.662;2022-08-26T13:39:15;9.93;;;5.75;;
8532;SDS011;4304;53.876;10.662;2022-08-26T13:41:42;12.68;;;6.53;;
8532;SDS011;4304;53.876;10.662;2022-08-26T13:44:07;16.15;;;6.50;;
8532;SDS011;4304;53.876;10.662;2022-08-26T13:46:33;10.13;;;6.28;;
8532;SDS011;4304;53.876;10.662;2022-08-26T13:48:59;20.27;;;6.60;;
8532;SDS011;4304;53.876;10.662;2022-08-26T13:51:25;12.88;;;6.00;;
8532;SDS011;4304;53.876;10.662;2022-08-26T13:53:51;13.93;;;6.18;;
8532;SDS011;4304;53.876;10.662;2022-08-26T13:56:17;14.77;;;7.80;;
8532;SDS011;4304;53.876;10.662;2022-08-26T13:58:42;12.50;;;6.75;;
8532;SDS011;4304;53.876;10.662;2022-08-26T14:01:08;13.07;;;5.95;;
8532;SDS011;4304;53.876;10.662;2022-08-26T14:03:33;12.90;;;6.38;;
8532;SDS011;4304;53.876;10.662;2022-08-26T14:05:59;15.75;;;7.05;;
8532;SDS011;4304;53.876;10.662;2022-08-26T14:08:24;11.60;;;6.38;;
8532;SDS011;4304;53.876;10.662;2022-08-26T14:10:49;16.90;;;6.35;;
8532;SDS011;4304;53.876;10.662;2022-08-26T14:13:14;15.38;;;6.40;;
8532;SDS011;4304;53.876;10.662;2022-08-26T14:15:39;12.70;;;6.05;;
8532;SDS011;4304;53.876;10.662;2022-08-26T14:18:05;12.35;;;6.65;;
8532;SDS011;4304;53.876;10.662;2022-08-26T14:20:33;16.02;;;6.10;;
8532;SDS011;4304;53.876;10.662;2022-08-26T14:23:00;12.57;;;6.43;;
8532;SDS011;4304;53.876;10.662;2022-08-26T14:25:25;14.65;;;5.85;;
8532;SDS011;4304;53.876;10.662;2022-08-26T14:27:52;17.42;;;5.50;;
8532;SDS011;4304;53.876;10.662;2022-08-26T14:30:17;11.68;;;6.32;;
8532;SDS011;4304;53.876;10.662;2022-08-26T14:32:46;15.00;;;6.53;;
8532;SDS011;4304;53.876;10.662;2022-08-26T14:35:15;11.80;;;6.40;;
8532;SDS011;4304;53.876;10.662;2022-08-26T14:37:43;11.55;;;6.45;;
8532;SDS011;4304;53.876;10.662;2022-08-26T14:40:08;15.13;;;6.63;;
8532;SDS011;4304;53.876;10.662;2022-08-26T14:42:34;15.95;;;6.40;;
8532;SDS011;4304;53.876;10.662;2022-08-26T14:45:01;17.65;;;6.80;;
8532;SDS011;4304;53.876;10.662;2022-08-26T14:47:29;11.85;;;6.50;;
8532;SDS011;4304;53.876;10.662;2022-08-26T14:49:55;16.08;;;6.45;;
8532;SDS011;4304;53.876;10.662;2022-08-26T14:52:20;10.52;;;5.88;;
8532;SDS011;4304;53.876;10.662;2022-08-26T14:54:45;18.92;;;6.68;;
8532;SDS011;4304;53.876;10.662;2022-08-26T14:57:11;16.42;;;6.75;;
8532;SDS011;4304;53.876;10.662;2022-08-26T14:59:39;10.55;;;6.85;;
8532;SDS011;4304;53.876;10.662;2022-08-26T15:02:06;15.80;;;7.78;;
8532;SDS011;4304;53.876;10.662;2022-08-26T15:04:33;16.50;;;7.57;;
8532;SDS011;4304;53.876;10.662;2022-08-26T15:06:59;13.48;;;7.43;;
8532;SDS011;4304;53.876;10.662;2022-08-26T15:09:25;14.40;;;8.52;;
8532;SDS011;4304;53.876;10.662;2022-08-26T15:11:52;16.02;;;7.43;;
8532;SDS011;4304;53.876;10.662;2022-08-26T15:14:18;19.88;;;8.93;;
8532;SDS011;4304;53.876;10.662;2022-08-26T15:16:44;29.15;;;9.18;;
8532;SDS011;4304;53.876;10.662;2022-08-26T15:19:10;15.32;;;8.70;;
8532;SDS011;4304;53.876;10.662;2022-08-26T15:21:35;28.02;;;8.77;;
8532;SDS011;4304;53.876;10.662;2022-08-26T15:24:01;18.95;;;8.85;;
8532;SDS011;4304;53.876;10.662;2022-08-26T15:26:32;23.13;;;8.80;;
8532;SDS011;4304;53.876;10.662;2022-08-26T15:28:58;25.85;;;10.57;;
8532;SDS011;4304;53.876;10.662;2022-08-26T15:31:24;21.08;;;10.02;;
8532;SDS011;4304;53.876;10.662;2022-08-26T15:33:51;22.52;;;9.68;;
8532;SDS011;4304;53.876;10.662;2022-08-26T15:36:16;18.35;;;10.73;;
8532;SDS011;4304;53.876;10.662;2022-08-26T15:38:42;21.25;;;10.18;;
8532;SDS011;4304;53.876;10.662;2022-08-26T15:41:07;27.00;;;10.85;;
8532;SDS011;4304;53.876;10.662;2022-08-26T15:43:33;20.42;;;10.55;;
8532;SDS011;4304;53.876;10.662;2022-08-26T15:46:00;23.90;;;11.45;;
8532;SDS011;4304;53.876;10.662;2022-08-26T15:48:25;23.92;;;10.57;;
8532;SDS011;4304;53.876;10.662;2022-08-26T15:50:56;29.05;;;11.05;;
8532;SDS011;4304;53.876;10.662;2022-08-26T15:53:23;24.98;;;10.88;;